sensor_id;sensor_type;location;lat;lon;timestamp;P1;durP1;ratioP1;P2;durP2;ratioP2
10979;SDS011;5543;51.734;8.744;2022-12-18T00:00:27;5.73;;;2.60;;
10979;SDS011;5543;51.734;8.744;2022-12-18T00:02:57;5.53;;;3.97;;
10979;SDS011;5543;51.734;8.744;2022-12-18T00:05:26;4.27;;;2.80;;
10979;SDS011;5543;51.734;8.744;2022-12-18T00:07:55;11.03;;;3.00;;
10979;SDS011;5543;51.734;8.744;2022-12-18T00:10:27;7.30;;;2.63;;
10979;SDS011;5543;51.734;8.744;2022-12-18T00:12:58;4.10;;;2.90;;
10979;SDS011;5543;51.734;8.744;2022-12-18T00:15:35;4.37;;;3.80;;
10979;SDS011;5543;51.734;8.744;2022-12-18T00:18:05;6.00;;;2.60;;
10979;SDS011;5543;51.734;8.744;2022-12-18T00:20:38;7.97;;;4.23;;
10979;SDS011;5543;51.734;8.744;2022-12-18T00:23:08;8.40;;;3.40;;
10979;SDS011;5543;51.734;8.744;2022-12-18T00:25:38;4.67;;;3.17;;
10979;SDS011;5543;51.734;8.744;2022-12-18T00:28:09;8.40;;;3.60;;
10979;SDS011;5543;51.734;8.744;2022-12-18T00:30:37;5.57;;;2.73;;
10979;SDS011;5543;51.734;8.744;2022-12-18T00:33:06;10.90;;;3.87;;
10979;SDS011;5543;51.734;8.744;2022-12-18T00:35:35;4.17;;;2.63;;
10979;SDS011;5543;51.734;8.744;2022-12-18T00:38:03;6.90;;;3.70;;
10979;SDS011;5543;51.734;8.744;2022-12-18T00:40:32;5.10;;;2.60;;
10979;SDS011;5543;51.734;8.744;2022-12-18T00:43:00;2.90;;;2.10;;
10979;SDS011;5543;51.734;8.744;2022-12-18T00:45:30;5.60;;;2.87;;
10979;SDS011;5543;51.734;8.744;2022-12-18T00:47:59;3.13;;;2.83;;
10979;SDS011;5543;51.734;8.744;2022-12-18T00:50:28;8.30;;;4.07;;
10979;SDS011;5543;51.734;8.744;2022-12-18T00:52:57;6.60;;;2.83;;
10979;SDS011;5543;51.734;8.744;2022-12-18T00:55:26;2.00;;;1.73;;
10979;SDS011;5543;51.734;8.744;2022-12-18T00:57:54;8.33;;;3.57;;
10979;SDS011;5543;51.734;8.744;2022-12-18T01:00:23;6.43;;;3.20;;
10979;SDS011;5543;51.734;8.744;2022-12-18T01:02:53;4.50;;;2.87;;
10979;SDS011;5543;51.734;8.744;2022-12-18T01:05:24;5.17;;;3.10;;
10979;SDS011;5543;51.734;8.744;2022-12-18T01:07:55;5.50;;;3.90;;
10979;SDS011;5543;51.734;8.744;2022-12-18T01:10:26;4.37;;;2.37;;
10979;SDS011;5543;51.734;8.744;2022-12-18T01:12:55;14.67;;;5.07;;
10979;SDS011;5543;51.734;8.744;2022-12-18T01:15:25;5.03;;;2.57;;
10979;SDS011;5543;51.734;8.744;2022-12-18T01:17:55;4.10;;;2.20;;
10979;SDS011;5543;51.734;8.744;2022-12-18T01:20:24;6.23;;;3.43;;
10979;SDS011;5543;51.734;8.744;2022-12-18T01:22:52;9.90;;;2.87;;
10979;SDS011;5543;51.734;8.744;2022-12-18T01:25:20;4.90;;;2.63;;
10979;SDS011;5543;51.734;8.744;2022-12-18T01:27:48;2.67;;;1.60;;
10979;SDS011;5543;51.734;8.744;2022-12-18T01:30:16;1.47;;;1.37;;
10979;SDS011;5543;51.734;8.744;2022-12-18T01:32:45;2.03;;;1.80;;
10979;SDS011;5543;51.734;8.744;2022-12-18T01:35:14;3.93;;;2.10;;
10979;SDS011;5543;51.734;8.744;2022-12-18T01:37:42;1.97;;;1.57;;
10979;SDS011;5543;51.734;8.744;2022-12-18T01:40:10;1.90;;;1.53;;
10979;SDS011;5543;51.734;8.744;2022-12-18T01:42:39;5.23;;;1.60;;
10979;SDS011;5543;51.734;8.744;2022-12-18T01:45:21;5.80;;;2.27;;
10979;SDS011;5543;51.734;8.744;2022-12-18T01:47:52;1.27;;;1.20;;
10979;SDS011;5543;51.734;8.744;2022-12-18T01:50:24;4.20;;;2.20;;
10979;SDS011;5543;51.734;8.744;2022-12-18T01:52:58;30.67;;;4.17;;
10979;SDS011;5543;51.734;8.744;2022-12-18T01:55:29;2.13;;;1.83;;
10979;SDS011;5543;51.734;8.744;2022-12-18T01:58:02;1.13;;;1.03;;
10979;SDS011;5543;51.734;8.744;2022-12-18T02:00:32;1.90;;;1.60;;
10979;SDS011;5543;51.734;8.744;2022-12-18T02:03:00;3.37;;;2.23;;
10979;SDS011;5543;51.734;8.744;2022-12-18T02:05:32;2.07;;;1.73;;
10979;SDS011;5543;51.734;8.744;2022-12-18T02:08:08;1.20;;;1.00;;
10979;SDS011;5543;51.734;8.744;2022-12-18T02:10:42;1.83;;;0.93;;
10979;SDS011;5543;51.734;8.744;2022-12-18T02:13:14;2.27;;;1.87;;
10979;SDS011;5543;51.734;8.744;2022-12-18T02:15:50;1.37;;;1.00;;
10979;SDS011;5543;51.734;8.744;2022-12-18T02:18:27;1.97;;;1.60;;
10979;SDS011;5543;51.734;8.744;2022-12-18T02:21:03;0.77;;;0.77;;
10979;SDS011;5543;51.734;8.744;2022-12-18T02:23:44;1.33;;;1.17;;
10979;SDS011;5543;51.734;8.744;2022-12-18T02:26:19;0.87;;;0.87;;
10979;SDS011;5543;51.734;8.744;2022-12-18T02:28:54;1.03;;;0.97;;
10979;SDS011;5543;51.734;8.744;2022-12-18T02:31:26;1.70;;;0.83;;
10979;SDS011;5543;51.734;8.744;2022-12-18T02:33:58;0.80;;;0.77;;
10979;SDS011;5543;51.734;8.744;2022-12-18T02:36:30;1.07;;;0.97;;
10979;SDS011;5543;51.734;8.744;2022-12-18T02:39:00;1.53;;;0.90;;
10979;SDS011;5543;51.734;8.744;2022-12-18T02:41:30;0.40;;;0.40;;
10979;SDS011;5543;51.734;8.744;2022-12-18T02:44:00;1.23;;;0.70;;
10979;SDS011;5543;51.734;8.744;2022-12-18T02:46:34;0.77;;;0.70;;
10979;SDS011;5543;51.734;8.744;2022-12-18T02:49:06;1.70;;;0.90;;
10979;SDS011;5543;51.734;8.744;2022-12-18T02:51:50;0.93;;;0.93;;
10979;SDS011;5543;51.734;8.744;2022-12-18T02:54:32;0.80;;;0.80;;
10979;SDS011;5543;51.734;8.744;2022-12-18T02:57:15;0.60;;;0.60;;
10979;SDS011;5543;51.734;8.744;2022-12-18T02:59:49;1.10;;;0.97;;
10979;SDS011;5543;51.734;8.744;2022-12-18T03:02:25;0.77;;;0.77;;
10979;SDS011;5543;51.734;8.744;2022-12-18T03:05:00;0.77;;;0.77;;
10979;SDS011;5543;51.734;8.744;2022-12-18T03:07:34;1.50;;;0.93;;
10979;SDS011;5543;51.734;8.744;2022-12-18T03:10:06;3.90;;;1.87;;
10979;SDS011;5543;51.734;8.744;2022-12-18T03:12:40;1.80;;;1.03;;
10979;SDS011;5543;51.734;8.744;2022-12-18T03:15:13;2.50;;;0.70;;
10979;SDS011;5543;51.734;8.744;2022-12-18T03:17:46;0.97;;;0.83;;
10979;SDS011;5543;51.734;8.744;2022-12-18T03:20:20;1.03;;;0.80;;
10979;SDS011;5543;51.734;8.744;2022-12-18T03:22:51;0.50;;;0.50;;
10979;SDS011;5543;51.734;8.744;2022-12-18T03:25:22;0.60;;;0.60;;
10979;SDS011;5543;51.734;8.744;2022-12-18T03:27:56;1.80;;;0.90;;
10979;SDS011;5543;51.734;8.744;2022-12-18T03:30:27;0.53;;;0.53;;
10979;SDS011;5543;51.734;8.744;2022-12-18T03:32:58;0.40;;;0.40;;
10979;SDS011;5543;51.734;8.744;2022-12-18T03:35:33;0.77;;;0.70;;
10979;SDS011;5543;51.734;8.744;2022-12-18T03:38:05;1.30;;;0.87;;
10979;SDS011;5543;51.734;8.744;2022-12-18T03:40:35;1.37;;;0.97;;
10979;SDS011;5543;51.734;8.744;2022-12-18T03:43:13;2.00;;;1.03;;
10979;SDS011;5543;51.734;8.744;2022-12-18T03:45:49;1.47;;;1.37;;
10979;SDS011;5543;51.734;8.744;2022-12-18T03:48:25;0.83;;;0.77;;
10979;SDS011;5543;51.734;8.744;2022-12-18T03:50:57;2.57;;;1.10;;
10979;SDS011;5543;51.734;8.744;2022-12-18T03:53:32;1.37;;;0.70;;
10979;SDS011;5543;51.734;8.744;2022-12-18T03:56:05;1.70;;;0.80;;
10979;SDS011;5543;51.734;8.744;2022-12-18T03:58:37;0.73;;;0.57;;
10979;SDS011;5543;51.734;8.744;2022-12-18T04:01:07;1.53;;;1.10;;
10979;SDS011;5543;51.734;8.744;2022-12-18T04:03:39;1.60;;;0.73;;
10979;SDS011;5543;51.734;8.744;2022-12-18T04:06:09;0.40;;;0.40;;
10979;SDS011;5543;51.734;8.744;2022-12-18T04:08:38;0.33;;;0.33;;
10979;SDS011;5543;51.734;8.744;2022-12-18T04:11:07;1.83;;;1.00;;
10979;SDS011;5543;51.734;8.744;2022-12-18T04:13:37;1.67;;;0.87;;
10979;SDS011;5543;51.734;8.744;2022-12-18T04:16:07;2.23;;;1.67;;
10979;SDS011;5543;51.734;8.744;2022-12-18T04:18:36;1.70;;;1.00;;
10979;SDS011;5543;51.734;8.744;2022-12-18T04:21:04;0.77;;;0.70;;
10979;SDS011;5543;51.734;8.744;2022-12-18T04:23:32;1.13;;;0.90;;
10979;SDS011;5543;51.734;8.744;2022-12-18T04:26:00;2.13;;;1.07;;
10979;SDS011;5543;51.734;8.744;2022-12-18T04:28:28;2.00;;;1.23;;
10979;SDS011;5543;51.734;8.744;2022-12-18T04:30:57;1.07;;;0.97;;
10979;SDS011;5543;51.734;8.744;2022-12-18T04:33:26;1.53;;;1.20;;
10979;SDS011;5543;51.734;8.744;2022-12-18T04:35:54;0.50;;;0.50;;
10979;SDS011;5543;51.734;8.744;2022-12-18T04:38:22;0.80;;;0.80;;
10979;SDS011;5543;51.734;8.744;2022-12-18T04:40:50;4.20;;;1.00;;
10979;SDS011;5543;51.734;8.744;2022-12-18T04:43:18;3.37;;;1.37;;
10979;SDS011;5543;51.734;8.744;2022-12-18T04:45:46;3.47;;;0.80;;
10979;SDS011;5543;51.734;8.744;2022-12-18T04:48:16;1.17;;;1.13;;
10979;SDS011;5543;51.734;8.744;2022-12-18T04:50:44;1.30;;;0.97;;
10979;SDS011;5543;51.734;8.744;2022-12-18T04:53:12;5.20;;;0.93;;
10979;SDS011;5543;51.734;8.744;2022-12-18T04:55:40;1.87;;;1.07;;
10979;SDS011;5543;51.734;8.744;2022-12-18T04:58:08;1.53;;;1.13;;
10979;SDS011;5543;51.734;8.744;2022-12-18T05:00:37;1.73;;;0.97;;
10979;SDS011;5543;51.734;8.744;2022-12-18T05:03:05;3.20;;;1.03;;
10979;SDS011;5543;51.734;8.744;2022-12-18T05:05:35;0.93;;;0.90;;
10979;SDS011;5543;51.734;8.744;2022-12-18T05:08:03;0.87;;;0.87;;
10979;SDS011;5543;51.734;8.744;2022-12-18T05:10:31;1.20;;;1.03;;
10979;SDS011;5543;51.734;8.744;2022-12-18T05:13:03;2.60;;;0.90;;
10979;SDS011;5543;51.734;8.744;2022-12-18T05:15:32;1.43;;;0.97;;
10979;SDS011;5543;51.734;8.744;2022-12-18T05:18:00;1.50;;;1.00;;
10979;SDS011;5543;51.734;8.744;2022-12-18T05:20:30;0.60;;;0.60;;
10979;SDS011;5543;51.734;8.744;2022-12-18T05:22:59;2.00;;;1.13;;
10979;SDS011;5543;51.734;8.744;2022-12-18T05:25:27;1.03;;;0.70;;
10979;SDS011;5543;51.734;8.744;2022-12-18T05:27:56;1.40;;;1.30;;
10979;SDS011;5543;51.734;8.744;2022-12-18T05:30:25;1.20;;;1.10;;
10979;SDS011;5543;51.734;8.744;2022-12-18T05:32:53;1.60;;;1.33;;
10979;SDS011;5543;51.734;8.744;2022-12-18T05:35:21;1.13;;;0.90;;
10979;SDS011;5543;51.734;8.744;2022-12-18T05:37:50;3.30;;;1.50;;
10979;SDS011;5543;51.734;8.744;2022-12-18T05:40:20;1.13;;;1.03;;
10979;SDS011;5543;51.734;8.744;2022-12-18T05:42:48;1.90;;;0.93;;
10979;SDS011;5543;51.734;8.744;2022-12-18T05:45:16;2.73;;;1.30;;
10979;SDS011;5543;51.734;8.744;2022-12-18T05:47:44;0.97;;;0.87;;
10979;SDS011;5543;51.734;8.744;2022-12-18T05:50:13;2.37;;;1.57;;
10979;SDS011;5543;51.734;8.744;2022-12-18T05:52:41;0.90;;;0.90;;
10979;SDS011;5543;51.734;8.744;2022-12-18T05:55:09;1.03;;;0.90;;
10979;SDS011;5543;51.734;8.744;2022-12-18T05:57:38;1.67;;;0.77;;
10979;SDS011;5543;51.734;8.744;2022-12-18T06:00:07;3.20;;;0.97;;
10979;SDS011;5543;51.734;8.744;2022-12-18T06:02:36;2.37;;;1.50;;
10979;SDS011;5543;51.734;8.744;2022-12-18T06:05:05;2.73;;;0.93;;
10979;SDS011;5543;51.734;8.744;2022-12-18T06:07:33;0.80;;;0.80;;
10979;SDS011;5543;51.734;8.744;2022-12-18T06:10:01;1.60;;;1.03;;
10979;SDS011;5543;51.734;8.744;2022-12-18T06:12:29;2.17;;;0.90;;
10979;SDS011;5543;51.734;8.744;2022-12-18T06:15:01;0.80;;;0.73;;
10979;SDS011;5543;51.734;8.744;2022-12-18T06:17:29;1.20;;;1.10;;
10979;SDS011;5543;51.734;8.744;2022-12-18T06:19:57;3.23;;;1.23;;
10979;SDS011;5543;51.734;8.744;2022-12-18T06:22:25;1.63;;;1.50;;
10979;SDS011;5543;51.734;8.744;2022-12-18T06:24:53;2.83;;;1.93;;
10979;SDS011;5543;51.734;8.744;2022-12-18T06:27:21;2.17;;;0.90;;
10979;SDS011;5543;51.734;8.744;2022-12-18T06:29:49;1.20;;;0.93;;
10979;SDS011;5543;51.734;8.744;2022-12-18T06:32:19;0.70;;;0.70;;
10979;SDS011;5543;51.734;8.744;2022-12-18T06:34:49;1.43;;;1.07;;
10979;SDS011;5543;51.734;8.744;2022-12-18T06:37:17;1.10;;;0.80;;
10979;SDS011;5543;51.734;8.744;2022-12-18T06:39:45;3.77;;;1.63;;
10979;SDS011;5543;51.734;8.744;2022-12-18T06:42:13;1.63;;;0.83;;
10979;SDS011;5543;51.734;8.744;2022-12-18T06:44:41;5.20;;;1.17;;
10979;SDS011;5543;51.734;8.744;2022-12-18T06:47:09;0.47;;;0.47;;
10979;SDS011;5543;51.734;8.744;2022-12-18T06:49:39;1.47;;;1.10;;
10979;SDS011;5543;51.734;8.744;2022-12-18T06:52:07;1.30;;;0.90;;
10979;SDS011;5543;51.734;8.744;2022-12-18T06:54:35;2.93;;;1.43;;
10979;SDS011;5543;51.734;8.744;2022-12-18T06:57:03;1.20;;;0.90;;
10979;SDS011;5543;51.734;8.744;2022-12-18T06:59:31;1.90;;;1.10;;
10979;SDS011;5543;51.734;8.744;2022-12-18T07:01:59;0.87;;;0.87;;
10979;SDS011;5543;51.734;8.744;2022-12-18T07:04:27;1.27;;;0.90;;
10979;SDS011;5543;51.734;8.744;2022-12-18T07:06:57;1.67;;;0.93;;
10979;SDS011;5543;51.734;8.744;2022-12-18T07:09:25;1.87;;;1.50;;
10979;SDS011;5543;51.734;8.744;2022-12-18T07:11:56;1.90;;;1.27;;
10979;SDS011;5543;51.734;8.744;2022-12-18T07:14:24;1.50;;;1.30;;
10979;SDS011;5543;51.734;8.744;2022-12-18T07:16:53;0.50;;;0.50;;
10979;SDS011;5543;51.734;8.744;2022-12-18T07:19:21;0.80;;;0.70;;
10979;SDS011;5543;51.734;8.744;2022-12-18T07:21:52;8.30;;;1.33;;
10979;SDS011;5543;51.734;8.744;2022-12-18T07:24:21;1.07;;;0.80;;
10979;SDS011;5543;51.734;8.744;2022-12-18T07:26:49;0.77;;;0.63;;
10979;SDS011;5543;51.734;8.744;2022-12-18T07:29:17;1.20;;;1.10;;
10979;SDS011;5543;51.734;8.744;2022-12-18T07:31:46;3.37;;;1.90;;
10979;SDS011;5543;51.734;8.744;2022-12-18T07:34:18;1.30;;;1.17;;
10979;SDS011;5543;51.734;8.744;2022-12-18T07:36:47;1.77;;;1.03;;
10979;SDS011;5543;51.734;8.744;2022-12-18T07:39:15;1.83;;;1.57;;
10979;SDS011;5543;51.734;8.744;2022-12-18T07:41:44;0.80;;;0.80;;
10979;SDS011;5543;51.734;8.744;2022-12-18T07:44:32;6.43;;;1.27;;
10979;SDS011;5543;51.734;8.744;2022-12-18T07:47:00;1.30;;;1.20;;
10979;SDS011;5543;51.734;8.744;2022-12-18T07:49:35;1.77;;;0.80;;
10979;SDS011;5543;51.734;8.744;2022-12-18T07:52:04;0.93;;;0.90;;
10979;SDS011;5543;51.734;8.744;2022-12-18T07:54:32;3.33;;;1.13;;
10979;SDS011;5543;51.734;8.744;2022-12-18T07:57:02;1.40;;;1.23;;
10979;SDS011;5543;51.734;8.744;2022-12-18T07:59:46;3.07;;;1.50;;
10979;SDS011;5543;51.734;8.744;2022-12-18T08:02:15;1.60;;;1.03;;
10979;SDS011;5543;51.734;8.744;2022-12-18T08:04:43;1.47;;;0.90;;
10979;SDS011;5543;51.734;8.744;2022-12-18T08:07:11;1.40;;;1.27;;
10979;SDS011;5543;51.734;8.744;2022-12-18T08:09:40;1.17;;;1.00;;
10979;SDS011;5543;51.734;8.744;2022-12-18T08:12:09;1.07;;;0.80;;
10979;SDS011;5543;51.734;8.744;2022-12-18T08:14:37;3.23;;;1.00;;
10979;SDS011;5543;51.734;8.744;2022-12-18T08:17:05;1.93;;;1.23;;
10979;SDS011;5543;51.734;8.744;2022-12-18T08:19:33;7.60;;;1.80;;
10979;SDS011;5543;51.734;8.744;2022-12-18T08:22:01;1.57;;;1.10;;
10979;SDS011;5543;51.734;8.744;2022-12-18T08:24:29;1.87;;;1.27;;
10979;SDS011;5543;51.734;8.744;2022-12-18T08:26:57;2.97;;;1.77;;
10979;SDS011;5543;51.734;8.744;2022-12-18T08:29:47;1.73;;;0.93;;
10979;SDS011;5543;51.734;8.744;2022-12-18T08:32:15;2.53;;;1.60;;
10979;SDS011;5543;51.734;8.744;2022-12-18T08:34:43;0.93;;;0.93;;
10979;SDS011;5543;51.734;8.744;2022-12-18T08:37:12;2.00;;;1.47;;
10979;SDS011;5543;51.734;8.744;2022-12-18T08:39:40;1.93;;;1.77;;
10979;SDS011;5543;51.734;8.744;2022-12-18T08:42:09;1.63;;;1.50;;
10979;SDS011;5543;51.734;8.744;2022-12-18T08:44:56;1.97;;;1.50;;
10979;SDS011;5543;51.734;8.744;2022-12-18T08:47:24;2.50;;;1.40;;
10979;SDS011;5543;51.734;8.744;2022-12-18T08:49:52;1.90;;;1.30;;
10979;SDS011;5543;51.734;8.744;2022-12-18T08:52:20;3.97;;;1.30;;
10979;SDS011;5543;51.734;8.744;2022-12-18T08:54:48;3.43;;;1.50;;
10979;SDS011;5543;51.734;8.744;2022-12-18T08:57:17;6.00;;;1.13;;
10979;SDS011;5543;51.734;8.744;2022-12-18T08:59:45;2.17;;;1.87;;
10979;SDS011;5543;51.734;8.744;2022-12-18T09:02:14;1.73;;;1.27;;
10979;SDS011;5543;51.734;8.744;2022-12-18T09:04:42;1.23;;;1.10;;
10979;SDS011;5543;51.734;8.744;2022-12-18T09:07:13;4.83;;;1.57;;
10979;SDS011;5543;51.734;8.744;2022-12-18T09:09:41;3.20;;;1.83;;
10979;SDS011;5543;51.734;8.744;2022-12-18T09:12:09;1.70;;;1.17;;
10979;SDS011;5543;51.734;8.744;2022-12-18T09:14:37;1.50;;;1.30;;
10979;SDS011;5543;51.734;8.744;2022-12-18T09:17:06;1.27;;;1.17;;
10979;SDS011;5543;51.734;8.744;2022-12-18T09:19:36;2.40;;;1.50;;
10979;SDS011;5543;51.734;8.744;2022-12-18T09:22:05;4.00;;;1.93;;
10979;SDS011;5543;51.734;8.744;2022-12-18T09:24:33;4.10;;;1.80;;
10979;SDS011;5543;51.734;8.744;2022-12-18T09:27:01;3.10;;;2.17;;
10979;SDS011;5543;51.734;8.744;2022-12-18T09:29:30;2.87;;;1.97;;
10979;SDS011;5543;51.734;8.744;2022-12-18T09:31:58;2.67;;;1.90;;
10979;SDS011;5543;51.734;8.744;2022-12-18T09:34:27;4.83;;;2.40;;
10979;SDS011;5543;51.734;8.744;2022-12-18T09:36:57;2.23;;;1.50;;
10979;SDS011;5543;51.734;8.744;2022-12-18T09:39:26;4.60;;;2.37;;
10979;SDS011;5543;51.734;8.744;2022-12-18T09:41:57;3.13;;;2.00;;
10979;SDS011;5543;51.734;8.744;2022-12-18T09:44:26;7.83;;;2.53;;
10979;SDS011;5543;51.734;8.744;2022-12-18T09:46:59;2.37;;;1.63;;
10979;SDS011;5543;51.734;8.744;2022-12-18T09:49:36;3.67;;;1.80;;
10979;SDS011;5543;51.734;8.744;2022-12-18T09:52:11;3.13;;;2.17;;
10979;SDS011;5543;51.734;8.744;2022-12-18T09:54:43;2.90;;;2.03;;
10979;SDS011;5543;51.734;8.744;2022-12-18T09:57:15;4.60;;;2.03;;
10979;SDS011;5543;51.734;8.744;2022-12-18T09:59:47;4.60;;;1.73;;
10979;SDS011;5543;51.734;8.744;2022-12-18T10:02:21;3.97;;;1.77;;
10979;SDS011;5543;51.734;8.744;2022-12-18T10:04:55;2.67;;;1.53;;
10979;SDS011;5543;51.734;8.744;2022-12-18T10:07:38;1.70;;;1.40;;
10979;SDS011;5543;51.734;8.744;2022-12-18T10:10:29;1.97;;;1.47;;
10979;SDS011;5543;51.734;8.744;2022-12-18T10:13:07;2.53;;;2.07;;
10979;SDS011;5543;51.734;8.744;2022-12-18T10:15:46;4.23;;;1.20;;
10979;SDS011;5543;51.734;8.744;2022-12-18T10:18:25;3.20;;;1.50;;
10979;SDS011;5543;51.734;8.744;2022-12-18T10:21:06;3.87;;;1.83;;
10979;SDS011;5543;51.734;8.744;2022-12-18T10:23:41;7.07;;;2.30;;
10979;SDS011;5543;51.734;8.744;2022-12-18T10:26:20;1.53;;;1.10;;
10979;SDS011;5543;51.734;8.744;2022-12-18T10:28:48;4.23;;;1.23;;
10979;SDS011;5543;51.734;8.744;2022-12-18T10:31:19;1.90;;;1.70;;
10979;SDS011;5543;51.734;8.744;2022-12-18T10:33:50;4.13;;;1.40;;
10979;SDS011;5543;51.734;8.744;2022-12-18T10:36:19;3.50;;;2.30;;
10979;SDS011;5543;51.734;8.744;2022-12-18T10:38:50;1.93;;;1.27;;
10979;SDS011;5543;51.734;8.744;2022-12-18T10:41:23;3.10;;;1.90;;
10979;SDS011;5543;51.734;8.744;2022-12-18T10:44:11;3.53;;;1.97;;
10979;SDS011;5543;51.734;8.744;2022-12-18T10:46:44;3.40;;;1.80;;
10979;SDS011;5543;51.734;8.744;2022-12-18T10:49:23;2.23;;;1.27;;
10979;SDS011;5543;51.734;8.744;2022-12-18T10:52:03;2.43;;;1.87;;
10979;SDS011;5543;51.734;8.744;2022-12-18T10:54:45;1.97;;;1.43;;
10979;SDS011;5543;51.734;8.744;2022-12-18T10:57:28;5.40;;;2.03;;
10979;SDS011;5543;51.734;8.744;2022-12-18T11:00:01;2.73;;;1.70;;
10979;SDS011;5543;51.734;8.744;2022-12-18T11:02:48;2.83;;;1.50;;
10979;SDS011;5543;51.734;8.744;2022-12-18T11:05:25;3.90;;;2.20;;
10979;SDS011;5543;51.734;8.744;2022-12-18T11:07:56;3.47;;;1.50;;
10979;SDS011;5543;51.734;8.744;2022-12-18T11:10:28;2.47;;;1.27;;
10979;SDS011;5543;51.734;8.744;2022-12-18T11:13:10;3.03;;;1.63;;
10979;SDS011;5543;51.734;8.744;2022-12-18T11:15:40;2.13;;;1.33;;
10979;SDS011;5543;51.734;8.744;2022-12-18T11:18:15;3.63;;;1.70;;
10979;SDS011;5543;51.734;8.744;2022-12-18T11:20:50;2.70;;;1.20;;
10979;SDS011;5543;51.734;8.744;2022-12-18T11:23:24;4.90;;;1.83;;
10979;SDS011;5543;51.734;8.744;2022-12-18T11:25:55;2.07;;;1.23;;
10979;SDS011;5543;51.734;8.744;2022-12-18T11:28:37;1.80;;;1.33;;
10979;SDS011;5543;51.734;8.744;2022-12-18T11:31:14;3.50;;;1.10;;
10979;SDS011;5543;51.734;8.744;2022-12-18T11:33:55;1.30;;;1.03;;
10979;SDS011;5543;51.734;8.744;2022-12-18T11:36:47;3.20;;;1.67;;
10979;SDS011;5543;51.734;8.744;2022-12-18T11:39:17;2.07;;;1.87;;
10979;SDS011;5543;51.734;8.744;2022-12-18T11:41:50;2.70;;;1.67;;
10979;SDS011;5543;51.734;8.744;2022-12-18T11:44:39;2.00;;;1.70;;
10979;SDS011;5543;51.734;8.744;2022-12-18T11:47:14;4.10;;;1.20;;
10979;SDS011;5543;51.734;8.744;2022-12-18T11:49:49;4.63;;;1.73;;
10979;SDS011;5543;51.734;8.744;2022-12-18T11:52:19;1.30;;;1.07;;
10979;SDS011;5543;51.734;8.744;2022-12-18T11:54:51;2.67;;;1.90;;
10979;SDS011;5543;51.734;8.744;2022-12-18T11:57:25;2.27;;;1.30;;
10979;SDS011;5543;51.734;8.744;2022-12-18T12:00:03;3.03;;;1.43;;
10979;SDS011;5543;51.734;8.744;2022-12-18T12:02:48;4.30;;;1.50;;
10979;SDS011;5543;51.734;8.744;2022-12-18T12:05:38;2.33;;;1.53;;
10979;SDS011;5543;51.734;8.744;2022-12-18T12:08:18;3.10;;;1.67;;
10979;SDS011;5543;51.734;8.744;2022-12-18T12:10:57;1.27;;;1.10;;
10979;SDS011;5543;51.734;8.744;2022-12-18T12:13:37;2.20;;;1.27;;
10979;SDS011;5543;51.734;8.744;2022-12-18T12:16:15;1.23;;;1.03;;
10979;SDS011;5543;51.734;8.744;2022-12-18T12:21:21;1.53;;;1.10;;
10979;SDS011;5543;51.734;8.744;2022-12-18T12:23:57;4.37;;;1.67;;
10979;SDS011;5543;51.734;8.744;2022-12-18T12:26:35;2.30;;;1.20;;
10979;SDS011;5543;51.734;8.744;2022-12-18T12:29:21;3.17;;;1.30;;
10979;SDS011;5543;51.734;8.744;2022-12-18T12:32:11;1.87;;;0.90;;
10979;SDS011;5543;51.734;8.744;2022-12-18T12:34:50;3.17;;;1.77;;
10979;SDS011;5543;51.734;8.744;2022-12-18T12:37:37;7.27;;;1.43;;
10979;SDS011;5543;51.734;8.744;2022-12-18T12:40:16;3.37;;;1.63;;
10979;SDS011;5543;51.734;8.744;2022-12-18T12:43:12;4.33;;;1.63;;
10979;SDS011;5543;51.734;8.744;2022-12-18T12:45:55;4.57;;;1.43;;
10979;SDS011;5543;51.734;8.744;2022-12-18T12:48:37;2.00;;;1.60;;
10979;SDS011;5543;51.734;8.744;2022-12-18T12:51:13;2.27;;;1.60;;
10979;SDS011;5543;51.734;8.744;2022-12-18T12:53:47;1.83;;;1.50;;
10979;SDS011;5543;51.734;8.744;2022-12-18T12:56:19;2.27;;;1.00;;
10979;SDS011;5543;51.734;8.744;2022-12-18T12:58:53;3.27;;;1.40;;
10979;SDS011;5543;51.734;8.744;2022-12-18T13:01:34;1.10;;;0.93;;
10979;SDS011;5543;51.734;8.744;2022-12-18T13:04:13;1.97;;;1.37;;
10979;SDS011;5543;51.734;8.744;2022-12-18T13:06:53;1.97;;;1.63;;
10979;SDS011;5543;51.734;8.744;2022-12-18T13:09:30;1.90;;;1.03;;
10979;SDS011;5543;51.734;8.744;2022-12-18T13:12:03;3.23;;;1.33;;
10979;SDS011;5543;51.734;8.744;2022-12-18T13:15:11;1.37;;;1.00;;
10979;SDS011;5543;51.734;8.744;2022-12-18T13:17:51;2.50;;;1.17;;
10979;SDS011;5543;51.734;8.744;2022-12-18T13:21:12;1.50;;;1.40;;
10979;SDS011;5543;51.734;8.744;2022-12-18T13:23:50;2.07;;;1.63;;
10979;SDS011;5543;51.734;8.744;2022-12-18T13:26:30;1.67;;;1.07;;
10979;SDS011;5543;51.734;8.744;2022-12-18T13:29:01;6.93;;;1.33;;
10979;SDS011;5543;51.734;8.744;2022-12-18T13:34:28;4.23;;;1.40;;
10979;SDS011;5543;51.734;8.744;2022-12-18T13:40:01;1.33;;;0.83;;
10979;SDS011;5543;51.734;8.744;2022-12-18T13:42:48;1.00;;;0.90;;
10979;SDS011;5543;51.734;8.744;2022-12-18T13:45:39;2.43;;;1.10;;
10979;SDS011;5543;51.734;8.744;2022-12-18T13:48:20;1.97;;;1.17;;
10979;SDS011;5543;51.734;8.744;2022-12-18T13:50:55;3.40;;;1.73;;
10979;SDS011;5543;51.734;8.744;2022-12-18T13:53:28;3.00;;;1.37;;
10979;SDS011;5543;51.734;8.744;2022-12-18T13:56:02;1.60;;;1.13;;
10979;SDS011;5543;51.734;8.744;2022-12-18T13:58:32;1.87;;;1.20;;
10979;SDS011;5543;51.734;8.744;2022-12-18T14:01:01;1.47;;;1.30;;
10979;SDS011;5543;51.734;8.744;2022-12-18T14:03:31;2.27;;;1.23;;
10979;SDS011;5543;51.734;8.744;2022-12-18T14:06:02;3.10;;;1.33;;
10979;SDS011;5543;51.734;8.744;2022-12-18T14:08:35;3.90;;;1.83;;
10979;SDS011;5543;51.734;8.744;2022-12-18T14:11:07;1.77;;;1.07;;
10979;SDS011;5543;51.734;8.744;2022-12-18T14:13:48;2.80;;;1.23;;
10979;SDS011;5543;51.734;8.744;2022-12-18T14:16:17;2.67;;;1.40;;
10979;SDS011;5543;51.734;8.744;2022-12-18T14:18:48;1.53;;;0.90;;
10979;SDS011;5543;51.734;8.744;2022-12-18T14:21:31;1.07;;;0.87;;
10979;SDS011;5543;51.734;8.744;2022-12-18T14:24:06;3.03;;;1.93;;
10979;SDS011;5543;51.734;8.744;2022-12-18T14:26:45;3.20;;;1.70;;
10979;SDS011;5543;51.734;8.744;2022-12-18T14:29:22;1.30;;;1.07;;
10979;SDS011;5543;51.734;8.744;2022-12-18T14:32:12;5.30;;;1.37;;
10979;SDS011;5543;51.734;8.744;2022-12-18T14:35:12;1.27;;;1.17;;
10979;SDS011;5543;51.734;8.744;2022-12-18T14:37:55;3.60;;;1.50;;
10979;SDS011;5543;51.734;8.744;2022-12-18T14:40:51;3.23;;;1.43;;
10979;SDS011;5543;51.734;8.744;2022-12-18T14:43:31;4.77;;;2.63;;
10979;SDS011;5543;51.734;8.744;2022-12-18T14:46:03;2.67;;;1.67;;
10979;SDS011;5543;51.734;8.744;2022-12-18T14:48:36;0.77;;;0.77;;
10979;SDS011;5543;51.734;8.744;2022-12-18T14:51:14;1.57;;;1.27;;
10979;SDS011;5543;51.734;8.744;2022-12-18T14:53:48;2.63;;;1.67;;
10979;SDS011;5543;51.734;8.744;2022-12-18T14:56:23;2.93;;;1.30;;
10979;SDS011;5543;51.734;8.744;2022-12-18T14:58:55;4.33;;;1.43;;
10979;SDS011;5543;51.734;8.744;2022-12-18T15:01:26;1.90;;;1.40;;
10979;SDS011;5543;51.734;8.744;2022-12-18T15:03:59;1.80;;;1.43;;
10979;SDS011;5543;51.734;8.744;2022-12-18T15:06:33;3.17;;;1.80;;
10979;SDS011;5543;51.734;8.744;2022-12-18T15:09:05;2.97;;;2.10;;
10979;SDS011;5543;51.734;8.744;2022-12-18T15:11:54;3.03;;;1.20;;
10979;SDS011;5543;51.734;8.744;2022-12-18T15:14:30;1.17;;;1.07;;
10979;SDS011;5543;51.734;8.744;2022-12-18T15:17:05;4.03;;;1.83;;
10979;SDS011;5543;51.734;8.744;2022-12-18T15:19:44;1.37;;;1.20;;
10979;SDS011;5543;51.734;8.744;2022-12-18T15:22:18;1.20;;;1.10;;
10979;SDS011;5543;51.734;8.744;2022-12-18T15:24:51;4.33;;;2.03;;
10979;SDS011;5543;51.734;8.744;2022-12-18T15:27:23;3.83;;;2.07;;
10979;SDS011;5543;51.734;8.744;2022-12-18T15:32:49;2.23;;;1.63;;
10979;SDS011;5543;51.734;8.744;2022-12-18T15:35:23;4.00;;;2.60;;
10979;SDS011;5543;51.734;8.744;2022-12-18T15:37:54;2.13;;;1.53;;
10979;SDS011;5543;51.734;8.744;2022-12-18T15:40:26;2.67;;;1.70;;
10979;SDS011;5543;51.734;8.744;2022-12-18T15:42:56;2.37;;;2.17;;
10979;SDS011;5543;51.734;8.744;2022-12-18T15:45:42;4.23;;;1.73;;